sensor_id;sensor_type;location;lat;lon;timestamp;pressure;altitude;pressure_sealevel;temperature;humidity
62458;BME280;48509;52.122;5.250;2023-02-17T00:01:09;101862.0;;;11.54;100.0
62458;BME280;48509;52.122;5.250;2023-02-17T00:02:45;101861.0;;;11.59;100.0
62458;BME280;48509;52.122;5.250;2023-02-17T00:04:21;101865.0;;;11.63;100.0
62458;BME280;48509;52.122;5.250;2023-02-17T00:07:34;101866.0;;;11.49;100.0
62458;BME280;48509;52.122;5.250;2023-02-17T00:09:11;101868.0;;;11.57;100.0
62458;BME280;48509;52.122;5.250;2023-02-17T00:10:54;101866.0;;;11.58;100.0
62458;BME280;48509;52.122;5.250;2023-02-17T00:14:09;101859.0;;;11.55;100.0
62458;BME280;48509;52.122;5.250;2023-02-17T00:15:46;101859.0;;;11.76;100.0
62458;BME280;48509;52.122;5.250;2023-02-17T00:17:22;101856.0;;;11.7;100.0
62458;BME280;48509;52.122;5.250;2023-02-17T00:19:00;101850.0;;;11.66;100.0
62458;BME280;48509;52.122;5.250;2023-02-17T00:22:13;101855.0;;;11.64;100.0
62458;BME280;48509;52.122;5.250;2023-02-17T00:23:50;101855.0;;;11.68;100.0
62458;BME280;48509;52.122;5.250;2023-02-17T00:25:26;101856.0;;;11.62;100.0
62458;BME280;48509;52.122;5.250;2023-02-17T00:28:40;101849.0;;;11.6;100.0
62458;BME280;48509;52.122;5.250;2023-02-17T00:30:17;101853.0;;;11.65;100.0
62458;BME280;48509;52.122;5.250;2023-02-17T00:31:54;101855.0;;;11.69;100.0
62458;BME280;48509;52.122;5.250;2023-02-17T00:35:07;101853.0;;;11.65;100.0
62458;BME280;48509;52.122;5.250;2023-02-17T00:36:43;101859.0;;;11.68;100.0
62458;BME280;48509;52.122;5.250;2023-02-17T00:38:20;101850.0;;;11.63;100.0
62458;BME280;48509;52.122;5.250;2023-02-17T00:39:57;101849.0;;;11.79;100.0
62458;BME280;48509;52.122;5.250;2023-02-17T00:43:10;101848.0;;;11.79;100.0
62458;BME280;48509;52.122;5.250;2023-02-17T00:44:46;101848.0;;;11.89;100.0
62458;BME280;48509;52.122;5.250;2023-02-17T00:46:23;101847.0;;;11.86;100.0
62458;BME280;48509;52.122;5.250;2023-02-17T00:49:36;101851.0;;;11.83;100.0
62458;BME280;48509;52.122;5.250;2023-02-17T00:51:12;101847.0;;;11.88;100.0
62458;BME280;48509;52.122;5.250;2023-02-17T00:52:51;101853.0;;;11.88;100.0
62458;BME280;48509;52.122;5.250;2023-02-17T00:56:05;101849.0;;;11.72;100.0
62458;BME280;48509;52.122;5.250;2023-02-17T00:57:41;101845.0;;;11.49;100.0
62458;BME280;48509;52.122;5.250;2023-02-17T00:59:17;101847.0;;;11.56;100.0
62458;BME280;48509;52.122;5.250;2023-02-17T01:00:54;101844.0;;;11.45;100.0
62458;BME280;48509;52.122;5.250;2023-02-17T01:04:07;101841.0;;;11.62;100.0
62458;BME280;48509;52.122;5.250;2023-02-17T01:05:44;101835.0;;;11.44;100.0
62458;BME280;48509;52.122;5.250;2023-02-17T01:07:23;101834.0;;;11.44;100.0
62458;BME280;48509;52.122;5.250;2023-02-17T01:10:37;101845.0;;;11.54;100.0
62458;BME280;48509;52.122;5.250;2023-02-17T01:12:16;101833.0;;;11.62;100.0
62458;BME280;48509;52.122;5.250;2023-02-17T01:13:53;101838.0;;;11.4;100.0
62458;BME280;48509;52.122;5.250;2023-02-17T01:15:36;101839.0;;;11.48;100.0
62458;BME280;48509;52.122;5.250;2023-02-17T01:18:49;101838.0;;;11.4;100.0
62458;BME280;48509;52.122;5.250;2023-02-17T01:20:26;101846.0;;;11.31;100.0
62458;BME280;48509;52.122;5.250;2023-02-17T01:22:02;101842.0;;;11.31;100.0
62458;BME280;48509;52.122;5.250;2023-02-17T01:25:14;101848.0;;;11.31;100.0
62458;BME280;48509;52.122;5.250;2023-02-17T01:26:51;101849.0;;;11.43;100.0
62458;BME280;48509;52.122;5.250;2023-02-17T01:28:28;101855.0;;;11.34;100.0
62458;BME280;48509;52.122;5.250;2023-02-17T01:30:06;101846.0;;;11.26;100.0
62458;BME280;48509;52.122;5.250;2023-02-17T01:33:19;101849.0;;;11.39;100.0
62458;BME280;48509;52.122;5.250;2023-02-17T01:34:55;101849.0;;;11.21;100.0
62458;BME280;48509;52.122;5.250;2023-02-17T01:36:32;101851.0;;;11.13;100.0
62458;BME280;48509;52.122;5.250;2023-02-17T01:39:45;101853.0;;;11.22;100.0
62458;BME280;48509;52.122;5.250;2023-02-17T01:41:23;101849.0;;;11.14;100.0
62458;BME280;48509;52.122;5.250;2023-02-17T01:43:00;101851.0;;;11.2;100.0
62458;BME280;48509;52.122;5.250;2023-02-17T01:47:44;101844.0;;;11.1;100.0
62458;BME280;48509;52.122;5.250;2023-02-17T01:49:30;101846.0;;;11.1;100.0
62458;BME280;48509;52.122;5.250;2023-02-17T01:51:09;101845.0;;;11.04;100.0
62458;BME280;48509;52.122;5.250;2023-02-17T01:54:29;101848.0;;;10.9;100.0
62458;BME280;48509;52.122;5.250;2023-02-17T01:56:10;101842.0;;;10.97;100.0
62458;BME280;48509;52.122;5.250;2023-02-17T01:57:50;101848.0;;;10.87;100.0
62458;BME280;48509;52.122;5.250;2023-02-17T01:59:29;101844.0;;;11.01;100.0
62458;BME280;48509;52.122;5.250;2023-02-17T02:02:45;101843.0;;;10.98;100.0
62458;BME280;48509;52.122;5.250;2023-02-17T02:04:27;101837.0;;;10.81;100.0
62458;BME280;48509;52.122;5.250;2023-02-17T02:06:10;101835.0;;;10.8;100.0
62458;BME280;48509;52.122;5.250;2023-02-17T02:07:52;101821.0;;;10.82;100.0
62458;BME280;48509;52.122;5.250;2023-02-17T02:11:10;101821.0;;;10.8;100.0
62458;BME280;48509;52.122;5.250;2023-02-17T02:12:46;101820.0;;;10.89;100.0
62458;BME280;48509;52.122;5.250;2023-02-17T02:14:23;101811.0;;;10.67;100.0
62458;BME280;48509;52.122;5.250;2023-02-17T02:17:56;101811.0;;;10.73;100.0
62458;BME280;48509;52.122;5.250;2023-02-17T02:20:51;101806.0;;;10.71;100.0
62458;BME280;48509;52.122;5.250;2023-02-17T02:23:28;101784.0;;;10.79;100.0
62458;BME280;48509;52.122;5.250;2023-02-17T02:25:43;101782.0;;;10.89;100.0
62458;BME280;48509;52.122;5.250;2023-02-17T02:27:41;101783.0;;;10.85;100.0
62458;BME280;48509;52.122;5.250;2023-02-17T02:29:55;101784.0;;;10.84;100.0
62458;BME280;48509;52.122;5.250;2023-02-17T02:33:20;101780.0;;;10.87;100.0
62458;BME280;48509;52.122;5.250;2023-02-17T02:35:03;101781.0;;;10.81;100.0
62458;BME280;48509;52.122;5.250;2023-02-17T02:38:30;101776.0;;;10.92;100.0
62458;BME280;48509;52.122;5.250;2023-02-17T02:40:13;101780.0;;;10.82;100.0
62458;BME280;48509;52.122;5.250;2023-02-17T02:41:54;101777.0;;;10.8;100.0
62458;BME280;48509;52.122;5.250;2023-02-17T02:43:32;101778.0;;;10.7;100.0
62458;BME280;48509;52.122;5.250;2023-02-17T02:46:55;101782.0;;;10.83;100.0
62458;BME280;48509;52.122;5.250;2023-02-17T02:48:32;101781.0;;;10.76;100.0
62458;BME280;48509;52.122;5.250;2023-02-17T02:50:12;101780.0;;;10.87;100.0
62458;BME280;48509;52.122;5.250;2023-02-17T02:51:54;101782.0;;;10.77;100.0
62458;BME280;48509;52.122;5.250;2023-02-17T02:55:46;101761.0;;;10.8;100.0
62458;BME280;48509;52.122;5.250;2023-02-17T02:57:36;101769.0;;;10.78;100.0
62458;BME280;48509;52.122;5.250;2023-02-17T02:59:30;101766.0;;;10.77;100.0
62458;BME280;48509;52.122;5.250;2023-02-17T03:01:16;101770.0;;;10.93;100.0
62458;BME280;48509;52.122;5.250;2023-02-17T03:03:03;101773.0;;;10.92;100.0
62458;BME280;48509;52.122;5.250;2023-02-17T03:04:50;101773.0;;;10.87;100.0
62458;BME280;48509;52.122;5.250;2023-02-17T03:06:35;101766.0;;;10.86;100.0
62458;BME280;48509;52.122;5.250;2023-02-17T03:10:01;101770.0;;;10.85;100.0
62458;BME280;48509;52.122;5.250;2023-02-17T03:11:38;101774.0;;;10.84;100.0
62458;BME280;48509;52.122;5.250;2023-02-17T03:13:17;101776.0;;;10.81;100.0
62458;BME280;48509;52.122;5.250;2023-02-17T03:14:59;101769.0;;;10.87;100.0
62458;BME280;48509;52.122;5.250;2023-02-17T03:18:14;101768.0;;;11.04;100.0
62458;BME280;48509;52.122;5.250;2023-02-17T03:19:50;101769.0;;;10.91;100.0
62458;BME280;48509;52.122;5.250;2023-02-17T03:21:32;101759.0;;;10.85;100.0
62458;BME280;48509;52.122;5.250;2023-02-17T03:23:12;101755.0;;;10.96;100.0
62458;BME280;48509;52.122;5.250;2023-02-17T03:26:25;101757.0;;;10.97;100.0
62458;BME280;48509;52.122;5.250;2023-02-17T03:28:01;101755.0;;;10.98;100.0
62458;BME280;48509;52.122;5.250;2023-02-17T03:29:37;101749.0;;;10.9;100.0
62458;BME280;48509;52.122;5.250;2023-02-17T03:32:50;101736.0;;;10.9;100.0
62458;BME280;48509;52.122;5.250;2023-02-17T03:34:27;101730.0;;;10.9;100.0
62458;BME280;48509;52.122;5.250;2023-02-17T03:36:03;101724.0;;;10.9;100.0
62458;BME280;48509;52.122;5.250;2023-02-17T03:37:40;101718.0;;;10.86;100.0
62458;BME280;48509;52.122;5.250;2023-02-17T03:40:52;101713.0;;;10.89;100.0
62458;BME280;48509;52.122;5.250;2023-02-17T03:42:29;101716.0;;;10.94;100.0
62458;BME280;48509;52.122;5.250;2023-02-17T03:44:06;101724.0;;;11.06;100.0
62458;BME280;48509;52.122;5.250;2023-02-17T03:47:18;101712.0;;;10.97;100.0
62458;BME280;48509;52.122;5.250;2023-02-17T03:48:55;101712.0;;;10.97;100.0
62458;BME280;48509;52.122;5.250;2023-02-17T03:50:31;101710.0;;;11.11;100.0
62458;BME280;48509;52.122;5.250;2023-02-17T03:53:44;101709.0;;;11.08;100.0
62458;BME280;48509;52.122;5.250;2023-02-17T03:55:21;101716.0;;;10.99;100.0
62458;BME280;48509;52.122;5.250;2023-02-17T03:56:58;101719.0;;;10.91;100.0
62458;BME280;48509;52.122;5.250;2023-02-17T04:00:11;101718.0;;;11.01;100.0
62458;BME280;48509;52.122;5.250;2023-02-17T04:01:48;101711.0;;;11.03;100.0
62458;BME280;48509;52.122;5.250;2023-02-17T04:03:24;101705.0;;;11.1;100.0
62458;BME280;48509;52.122;5.250;2023-02-17T04:05:00;101699.0;;;11.12;100.0
62458;BME280;48509;52.122;5.250;2023-02-17T04:08:13;101713.0;;;11.19;100.0
62458;BME280;48509;52.122;5.250;2023-02-17T04:09:49;101708.0;;;11.26;100.0
62458;BME280;48509;52.122;5.250;2023-02-17T04:11:26;101709.0;;;11.14;100.0
62458;BME280;48509;52.122;5.250;2023-02-17T04:14:38;101710.0;;;11.11;100.0
62458;BME280;48509;52.122;5.250;2023-02-17T04:16:14;101711.0;;;11.08;100.0
62458;BME280;48509;52.122;5.250;2023-02-17T04:17:50;101717.0;;;11.24;100.0
62458;BME280;48509;52.122;5.250;2023-02-17T04:21:03;101714.0;;;11.31;100.0
62458;BME280;48509;52.122;5.250;2023-02-17T04:22:40;101720.0;;;11.23;100.0
62458;BME280;48509;52.122;5.250;2023-02-17T04:24:17;101722.0;;;11.37;100.0
62458;BME280;48509;52.122;5.250;2023-02-17T04:25:53;101731.0;;;11.32;100.0
62458;BME280;48509;52.122;5.250;2023-02-17T04:29:05;101725.0;;;11.34;100.0
62458;BME280;48509;52.122;5.250;2023-02-17T04:30:42;101722.0;;;11.26;100.0
62458;BME280;48509;52.122;5.250;2023-02-17T04:32:19;101716.0;;;11.3;100.0
62458;BME280;48509;52.122;5.250;2023-02-17T04:35:32;101717.0;;;11.26;100.0
62458;BME280;48509;52.122;5.250;2023-02-17T04:37:08;101705.0;;;11.28;100.0
62458;BME280;48509;52.122;5.250;2023-02-17T04:38:44;101703.0;;;11.31;100.0
62458;BME280;48509;52.122;5.250;2023-02-17T04:41:57;101697.0;;;11.32;100.0
62458;BME280;48509;52.122;5.250;2023-02-17T04:43:33;101710.0;;;11.45;100.0
62458;BME280;48509;52.122;5.250;2023-02-17T04:45:10;101705.0;;;11.3;100.0
62458;BME280;48509;52.122;5.250;2023-02-17T04:46:47;101707.0;;;11.42;100.0
62458;BME280;48509;52.122;5.250;2023-02-17T04:50:01;101703.0;;;11.4;100.0
62458;BME280;48509;52.122;5.250;2023-02-17T04:51:39;101694.0;;;11.39;100.0
62458;BME280;48509;52.122;5.250;2023-02-17T04:53:15;101686.0;;;11.35;100.0
62458;BME280;48509;52.122;5.250;2023-02-17T04:56:29;101687.0;;;11.4;100.0
62458;BME280;48509;52.122;5.250;2023-02-17T04:59:44;101694.0;;;11.38;100.0
62458;BME280;48509;52.122;5.250;2023-02-17T05:02:56;101698.0;;;11.35;100.0
62458;BME280;48509;52.122;5.250;2023-02-17T05:04:33;101702.0;;;11.38;100.0
62458;BME280;48509;52.122;5.250;2023-02-17T05:06:10;101698.0;;;11.42;100.0
62458;BME280;48509;52.122;5.250;2023-02-17T05:07:47;101706.0;;;11.35;100.0
62458;BME280;48509;52.122;5.250;2023-02-17T05:11:00;101711.0;;;11.29;100.0
62458;BME280;48509;52.122;5.250;2023-02-17T05:12:36;101719.0;;;11.4;100.0
62458;BME280;48509;52.122;5.250;2023-02-17T05:14:13;101719.0;;;11.42;100.0
62458;BME280;48509;52.122;5.250;2023-02-17T05:17:25;101722.0;;;11.38;100.0
62458;BME280;48509;52.122;5.250;2023-02-17T05:19:01;101712.0;;;11.33;100.0
62458;BME280;48509;52.122;5.250;2023-02-17T05:20:38;101720.0;;;11.29;100.0
62458;BME280;48509;52.122;5.250;2023-02-17T05:22:15;101721.0;;;11.25;100.0
62458;BME280;48509;52.122;5.250;2023-02-17T05:25:28;101706.0;;;11.27;100.0
62458;BME280;48509;52.122;5.250;2023-02-17T05:27:05;101695.0;;;11.45;100.0
62458;BME280;48509;52.122;5.250;2023-02-17T05:28:41;101699.0;;;11.42;100.0
62458;BME280;48509;52.122;5.250;2023-02-17T05:31:54;101710.0;;;11.49;100.0
62458;BME280;48509;52.122;5.250;2023-02-17T05:33:30;101705.0;;;11.38;100.0
62458;BME280;48509;52.122;5.250;2023-02-17T05:35:08;101699.0;;;11.39;100.0
62458;BME280;48509;52.122;5.250;2023-02-17T05:38:21;101703.0;;;11.42;100.0
62458;BME280;48509;52.122;5.250;2023-02-17T05:39:57;101694.0;;;11.54;100.0
62458;BME280;48509;52.122;5.250;2023-02-17T05:41:33;101687.0;;;11.45;100.0
62458;BME280;48509;52.122;5.250;2023-02-17T05:44:45;101702.0;;;11.5;100.0
62458;BME280;48509;52.122;5.250;2023-02-17T05:46:22;101705.0;;;11.36;100.0
62458;BME280;48509;52.122;5.250;2023-02-17T05:47:58;101702.0;;;11.37;100.0
62458;BME280;48509;52.122;5.250;2023-02-17T05:49:34;101701.0;;;11.47;100.0
62458;BME280;48509;52.122;5.250;2023-02-17T05:52:49;101694.0;;;11.3;100.0
62458;BME280;48509;52.122;5.250;2023-02-17T05:54:25;101686.0;;;11.42;100.0
62458;BME280;48509;52.122;5.250;2023-02-17T05:56:01;101686.0;;;11.43;100.0
62458;BME280;48509;52.122;5.250;2023-02-17T05:59:14;101688.0;;;11.39;100.0
62458;BME280;48509;52.122;5.250;2023-02-17T06:00:50;101684.0;;;11.37;100.0
62458;BME280;48509;52.122;5.250;2023-02-17T06:02:26;101677.0;;;11.41;100.0
62458;BME280;48509;52.122;5.250;2023-02-17T06:05:38;101678.0;;;11.43;100.0
62458;BME280;48509;52.122;5.250;2023-02-17T06:07:15;101683.0;;;11.41;100.0
62458;BME280;48509;52.122;5.250;2023-02-17T06:08:51;101685.0;;;11.46;100.0
62458;BME280;48509;52.122;5.250;2023-02-17T06:10:27;101685.0;;;11.36;100.0
62458;BME280;48509;52.122;5.250;2023-02-17T06:13:41;101678.0;;;11.39;100.0
62458;BME280;48509;52.122;5.250;2023-02-17T06:15:17;101678.0;;;11.46;100.0
62458;BME280;48509;52.122;5.250;2023-02-17T06:16:55;101672.0;;;11.37;100.0
62458;BME280;48509;52.122;5.250;2023-02-17T06:20:09;101692.0;;;11.38;100.0
62458;BME280;48509;52.122;5.250;2023-02-17T06:21:45;101677.0;;;11.43;100.0
62458;BME280;48509;52.122;5.250;2023-02-17T06:23:22;101677.0;;;11.5;100.0
62458;BME280;48509;52.122;5.250;2023-02-17T06:26:35;101683.0;;;11.38;100.0
62458;BME280;48509;52.122;5.250;2023-02-17T06:28:11;101677.0;;;11.38;100.0
62458;BME280;48509;52.122;5.250;2023-02-17T06:29:47;101677.0;;;11.43;100.0
62458;BME280;48509;52.122;5.250;2023-02-17T06:31:24;101674.0;;;11.34;100.0
62458;BME280;48509;52.122;5.250;2023-02-17T06:34:37;101677.0;;;11.45;100.0
62458;BME280;48509;52.122;5.250;2023-02-17T06:36:13;101676.0;;;11.52;100.0
62458;BME280;48509;52.122;5.250;2023-02-17T06:37:49;101658.0;;;11.48;100.0
62458;BME280;48509;52.122;5.250;2023-02-17T06:41:02;101650.0;;;11.5;100.0
62458;BME280;48509;52.122;5.250;2023-02-17T06:42:38;101648.0;;;11.41;100.0
62458;BME280;48509;52.122;5.250;2023-02-17T06:44:14;101644.0;;;11.54;100.0
62458;BME280;48509;52.122;5.250;2023-02-17T06:47:28;101649.0;;;11.5;100.0
62458;BME280;48509;52.122;5.250;2023-02-17T06:49:04;101649.0;;;11.48;100.0
62458;BME280;48509;52.122;5.250;2023-02-17T06:50:41;101643.0;;;11.51;100.0
62458;BME280;48509;52.122;5.250;2023-02-17T06:52:17;101642.0;;;11.54;100.0
62458;BME280;48509;52.122;5.250;2023-02-17T06:55:30;101641.0;;;11.5;100.0
62458;BME280;48509;52.122;5.250;2023-02-17T06:57:06;101642.0;;;11.61;100.0
62458;BME280;48509;52.122;5.250;2023-02-17T06:58:43;101635.0;;;11.65;100.0
62458;BME280;48509;52.122;5.250;2023-02-17T07:01:57;101640.0;;;11.73;100.0
62458;BME280;48509;52.122;5.250;2023-02-17T07:03:33;101636.0;;;11.62;100.0
62458;BME280;48509;52.122;5.250;2023-02-17T07:05:09;101640.0;;;11.59;100.0
62458;BME280;48509;52.122;5.250;2023-02-17T07:08:22;101637.0;;;11.68;100.0
62458;BME280;48509;52.122;5.250;2023-02-17T07:09:58;101635.0;;;11.77;100.0
62458;BME280;48509;52.122;5.250;2023-02-17T07:11:34;101651.0;;;11.73;100.0
62458;BME280;48509;52.122;5.250;2023-02-17T07:13:10;101642.0;;;11.8;100.0
62458;BME280;48509;52.122;5.250;2023-02-17T07:16:22;101643.0;;;11.91;100.0
62458;BME280;48509;52.122;5.250;2023-02-17T07:17:59;101658.0;;;11.74;100.0
62458;BME280;48509;52.122;5.250;2023-02-17T07:19:37;101658.0;;;11.9;100.0
62458;BME280;48509;52.122;5.250;2023-02-17T07:22:49;101670.0;;;11.92;100.0
62458;BME280;48509;52.122;5.250;2023-02-17T07:24:26;101668.0;;;12.01;100.0
62458;BME280;48509;52.122;5.250;2023-02-17T07:26:02;101659.0;;;11.99;100.0
62458;BME280;48509;52.122;5.250;2023-02-17T07:29:16;101671.0;;;12.1;100.0
62458;BME280;48509;52.122;5.250;2023-02-17T07:30:53;101677.0;;;12.0;100.0
62458;BME280;48509;52.122;5.250;2023-02-17T07:32:29;101674.0;;;11.9;100.0
62458;BME280;48509;52.122;5.250;2023-02-17T07:34:05;101666.0;;;11.9;100.0
62458;BME280;48509;52.122;5.250;2023-02-17T07:37:20;101648.0;;;11.98;100.0
62458;BME280;48509;52.122;5.250;2023-02-17T07:38:56;101655.0;;;12.0;100.0
62458;BME280;48509;52.122;5.250;2023-02-17T07:40:33;101645.0;;;11.99;100.0
62458;BME280;48509;52.122;5.250;2023-02-17T07:43:45;101648.0;;;12.1;100.0
62458;BME280;48509;52.122;5.250;2023-02-17T07:45:23;101641.0;;;12.06;100.0
62458;BME280;48509;52.122;5.250;2023-02-17T07:46:59;101649.0;;;12.06;100.0
62458;BME280;48509;52.122;5.250;2023-02-17T07:50:12;101649.0;;;12.16;100.0
62458;BME280;48509;52.122;5.250;2023-02-17T08:03:48;101663.0;;;12.2;100.0
62458;BME280;48509;52.122;5.250;2023-02-17T08:07:01;101661.0;;;12.3;100.0
62458;BME280;48509;52.122;5.250;2023-02-17T08:13:34;101671.0;;;12.21;100.0
62458;BME280;48509;52.122;5.250;2023-02-17T08:15:11;101692.0;;;12.27;100.0
62458;BME280;48509;52.122;5.250;2023-02-17T08:16:48;101693.0;;;12.27;100.0
62458;BME280;48509;52.122;5.250;2023-02-17T08:18:25;101681.0;;;12.27;100.0
62458;BME280;48509;52.122;5.250;2023-02-17T08:21:38;101687.0;;;12.26;100.0
62458;BME280;48509;52.122;5.250;2023-02-17T08:23:14;101690.0;;;12.24;100.0
62458;BME280;48509;52.122;5.250;2023-02-17T08:24:51;101686.0;;;12.29;100.0
62458;BME280;48509;52.122;5.250;2023-02-17T08:26:27;101680.0;;;12.26;100.0
62458;BME280;48509;52.122;5.250;2023-02-17T08:29:40;101684.0;;;12.27;100.0
62458;BME280;48509;52.122;5.250;2023-02-17T08:31:20;101699.0;;;12.23;100.0
62458;BME280;48509;52.122;5.250;2023-02-17T08:32:56;101696.0;;;12.3;100.0
62458;BME280;48509;52.122;5.250;2023-02-17T08:36:10;101689.0;;;12.24;100.0
62458;BME280;48509;52.122;5.250;2023-02-17T08:37:47;101689.0;;;12.28;100.0
62458;BME280;48509;52.122;5.250;2023-02-17T08:39:25;101702.0;;;12.17;100.0
62458;BME280;48509;52.122;5.250;2023-02-17T08:41:11;101718.0;;;12.28;100.0
62458;BME280;48509;52.122;5.250;2023-02-17T08:44:23;101705.0;;;12.31;100.0
62458;BME280;48509;52.122;5.250;2023-02-17T08:46:00;101709.0;;;12.3;100.0
62458;BME280;48509;52.122;5.250;2023-02-17T08:47:36;101697.0;;;12.22;100.0
62458;BME280;48509;52.122;5.250;2023-02-17T08:50:51;101707.0;;;12.37;100.0
62458;BME280;48509;52.122;5.250;2023-02-17T08:52:27;101717.0;;;12.39;100.0
62458;BME280;48509;52.122;5.250;2023-02-17T08:54:05;101718.0;;;12.34;100.0
62458;BME280;48509;52.122;5.250;2023-02-17T08:55:42;101724.0;;;12.32;100.0
62458;BME280;48509;52.122;5.250;2023-02-17T08:58:57;101714.0;;;12.26;100.0
62458;BME280;48509;52.122;5.250;2023-02-17T09:00:33;101722.0;;;12.26;100.0
62458;BME280;48509;52.122;5.250;2023-02-17T09:02:09;101719.0;;;12.23;100.0
62458;BME280;48509;52.122;5.250;2023-02-17T09:05:24;101719.0;;;12.19;100.0
62458;BME280;48509;52.122;5.250;2023-02-17T09:07:01;101713.0;;;12.31;100.0
62458;BME280;48509;52.122;5.250;2023-02-17T09:08:38;101717.0;;;12.19;100.0
62458;BME280;48509;52.122;5.250;2023-02-17T09:11:55;101728.0;;;12.3;100.0
62458;BME280;48509;52.122;5.250;2023-02-17T09:13:32;101724.0;;;12.27;100.0
62458;BME280;48509;52.122;5.250;2023-02-17T09:15:09;101721.0;;;12.2;100.0
62458;BME280;48509;52.122;5.250;2023-02-17T09:16:45;101713.0;;;12.23;100.0
62458;BME280;48509;52.122;5.250;2023-02-17T09:19:58;101732.0;;;12.3;100.0
62458;BME280;48509;52.122;5.250;2023-02-17T09:21:35;101733.0;;;12.24;100.0
62458;BME280;48509;52.122;5.250;2023-02-17T09:23:12;101727.0;;;12.34;100.0
62458;BME280;48509;52.122;5.250;2023-02-17T09:26:24;101724.0;;;12.34;100.0
62458;BME280;48509;52.122;5.250;2023-02-17T09:28:00;101718.0;;;12.42;100.0
62458;BME280;48509;52.122;5.250;2023-02-17T09:29:37;101716.0;;;12.41;100.0
62458;BME280;48509;52.122;5.250;2023-02-17T09:31:15;101710.0;;;12.47;100.0
62458;BME280;48509;52.122;5.250;2023-02-17T09:34:33;101712.0;;;12.54;100.0
62458;BME280;48509;52.122;5.250;2023-02-17T09:36:12;101709.0;;;12.49;100.0
62458;BME280;48509;52.122;5.250;2023-02-17T09:37:50;101705.0;;;12.6;100.0
62458;BME280;48509;52.122;5.250;2023-02-17T09:41:14;101715.0;;;12.51;100.0
62458;BME280;48509;52.122;5.250;2023-02-17T09:42:50;101716.0;;;12.54;100.0
62458;BME280;48509;52.122;5.250;2023-02-17T09:44:32;101721.0;;;12.41;100.0
62458;BME280;48509;52.122;5.250;2023-02-17T09:46:22;101717.0;;;12.28;100.0
62458;BME280;48509;52.122;5.250;2023-02-17T09:48:02;101717.0;;;12.39;100.0
62458;BME280;48509;52.122;5.250;2023-02-17T09:51:27;101709.0;;;12.38;100.0
62458;BME280;48509;52.122;5.250;2023-02-17T09:53:11;101709.0;;;12.5;100.0
62458;BME280;48509;52.122;5.250;2023-02-17T09:55:00;101709.0;;;12.57;100.0
62458;BME280;48509;52.122;5.250;2023-02-17T09:56:39;101703.0;;;12.58;100.0
62458;BME280;48509;52.122;5.250;2023-02-17T10:00:00;101705.0;;;12.6;100.0
62458;BME280;48509;52.122;5.250;2023-02-17T10:01:43;101701.0;;;12.64;100.0
62458;BME280;48509;52.122;5.250;2023-02-17T10:03:25;101707.0;;;12.57;100.0
62458;BME280;48509;52.122;5.250;2023-02-17T10:05:08;101709.0;;;12.58;100.0
62458;BME280;48509;52.122;5.250;2023-02-17T10:06:50;101719.0;;;12.61;100.0
62458;BME280;48509;52.122;5.250;2023-02-17T10:10:13;101715.0;;;12.73;100.0
62458;BME280;48509;52.122;5.250;2023-02-17T10:11:55;101707.0;;;12.71;100.0
62458;BME280;48509;52.122;5.250;2023-02-17T10:13:36;101713.0;;;12.81;100.0
62458;BME280;48509;52.122;5.250;2023-02-17T10:15:21;101716.0;;;12.77;100.0
62458;BME280;48509;52.122;5.250;2023-02-17T10:18:45;101737.0;;;12.86;100.0
62458;BME280;48509;52.122;5.250;2023-02-17T10:20:29;101728.0;;;12.88;100.0
62458;BME280;48509;52.122;5.250;2023-02-17T10:22:10;101731.0;;;12.68;100.0
62458;BME280;48509;52.122;5.250;2023-02-17T10:23:50;101738.0;;;12.65;100.0
62458;BME280;48509;52.122;5.250;2023-02-17T10:27:34;101733.0;;;12.63;100.0
62458;BME280;48509;52.122;5.250;2023-02-17T10:29:19;101726.0;;;12.68;100.0
62458;BME280;48509;52.122;5.250;2023-02-17T10:31:10;101740.0;;;12.6;100.0
62458;BME280;48509;52.122;5.250;2023-02-17T10:32:57;101737.0;;;12.61;100.0
62458;BME280;48509;52.122;5.250;2023-02-17T10:34:37;101740.0;;;12.73;100.0
62458;BME280;48509;52.122;5.250;2023-02-17T10:36:23;101747.0;;;12.43;100.0
62458;BME280;48509;52.122;5.250;2023-02-17T10:39:53;101724.0;;;12.59;100.0
62458;BME280;48509;52.122;5.250;2023-02-17T10:41:34;101733.0;;;12.75;100.0
62458;BME280;48509;52.122;5.250;2023-02-17T10:43:14;101730.0;;;12.77;100.0
62458;BME280;48509;52.122;5.250;2023-02-17T10:45:03;101738.0;;;12.61;100.0
62458;BME280;48509;52.122;5.250;2023-02-17T10:46:48;101735.0;;;12.6;100.0
62458;BME280;48509;52.122;5.250;2023-02-17T10:50:16;101744.0;;;12.65;100.0
62458;BME280;48509;52.122;5.250;2023-02-17T10:52:00;101735.0;;;12.63;100.0
62458;BME280;48509;52.122;5.250;2023-02-17T10:53:37;101741.0;;;12.66;100.0
62458;BME280;48509;52.122;5.250;2023-02-17T10:55:19;101739.0;;;12.63;100.0
62458;BME280;48509;52.122;5.250;2023-02-17T10:57:07;101738.0;;;12.6;100.0
62458;BME280;48509;52.122;5.250;2023-02-17T11:00:30;101748.0;;;12.65;100.0
62458;BME280;48509;52.122;5.250;2023-02-17T11:02:18;101789.0;;;12.57;100.0
62458;BME280;48509;52.122;5.250;2023-02-17T11:04:00;101765.0;;;12.7;100.0
62458;BME280;48509;52.122;5.250;2023-02-17T11:05:40;101761.0;;;12.64;100.0
62458;BME280;48509;52.122;5.250;2023-02-17T11:09:17;101775.0;;;12.77;100.0
62458;BME280;48509;52.122;5.250;2023-02-17T11:10:59;101753.0;;;12.76;100.0
62458;BME280;48509;52.122;5.250;2023-02-17T11:12:39;101752.0;;;12.66;100.0
62458;BME280;48509;52.122;5.250;2023-02-17T11:14:18;101759.0;;;12.7;100.0
62458;BME280;48509;52.122;5.250;2023-02-17T11:15:59;101771.0;;;12.75;100.0
62458;BME280;48509;52.122;5.250;2023-02-17T11:19:20;101781.0;;;12.72;100.0
62458;BME280;48509;52.122;5.250;2023-02-17T11:21:03;101765.0;;;12.61;100.0
62458;BME280;48509;52.122;5.250;2023-02-17T11:22:42;101768.0;;;12.62;100.0
62458;BME280;48509;52.122;5.250;2023-02-17T11:24:19;101774.0;;;12.71;100.0
62458;BME280;48509;52.122;5.250;2023-02-17T11:27:37;101783.0;;;12.6;100.0
62458;BME280;48509;52.122;5.250;2023-02-17T11:29:16;101776.0;;;12.66;100.0
62458;BME280;48509;52.122;5.250;2023-02-17T11:30:55;101780.0;;;12.77;100.0